OOCL Hamburg — VRZK9 — position and weather

sailwx.info

Track history (hours):
 
Tides and Currents Weather Stations Pressure Air Temp Water Temp Dewpoint Dewpoint Depression Visibility Wind Speed Wind Dir Waves Ship Positions

OOCL Hamburg

Last reported at 2017-May-22 23:00 UTC. Time now 2017-May-22 23:18 UTC.
Position N 36°58' E 002°16'.

Length 323 m; beam 42.8 m; draft 14.5 m.

Type: Cargo ship. MMSI: 477702000.

Date/timePositionNaut miles runAvg speedWind from/ knotsBaromVisibWave heightAir tempDewpointWater temp
2017-May-22 23:00N 36°58' E 002°16'1019.3
2017-May-22 22:30N 36°59' E 002°28'919.1
2017-May-22 22:00N 37°01' E 002°39'1119.1
2017-May-22 21:27N 37°02' E 002°53'819.0
2017-May-22 21:00N 37°03' E 003°03'918.7
2017-May-22 20:30N 37°05' E 003°15'918.6
2017-May-22 20:00N 37°06' E 003°26'918.9
2017-May-22 19:30N 37°07' E 003°38'1019.0
2017-May-22 19:00N 37°09' E 003°50'919.0
2017-May-22 18:31N 37°10' E 004°01'918.9
2017-May-22 18:00N 37°11' E 004°13'918.8
2017-May-22 17:30N 37°13' E 004°25'918.9
2017-May-22 17:00N 37°14' E 004°37'918.9
2017-May-22 16:30N 37°15' E 004°48'918.7
2017-May-22 16:00N 37°17' E 004°60'918.1
2017-May-22 15:31N 37°18' E 005°11'918.4
2017-May-22 15:00N 37°20' E 005°23'1918.8
2017-May-22 14:00N 37°22' E 005°46'1018.9
2017-May-22 13:30N 37°23' E 005°58'918.8
2017-May-22 13:01N 37°24' E 006°10'918.8
2017-May-22 12:31N 37°26' E 006°21'918.8
2017-May-22 12:00N 37°27' E 006°33'918.7
2017-May-22 11:30N 37°29' E 006°45'1019.2
2017-May-22 11:00N 37°30' E 006°57'1020.9
2017-May-22 10:30N 37°32' E 007°10'1020.7
2017-May-22 10:00N 37°33' E 007°23'1020.9
2017-May-22 09:30N 37°35' E 007°36'1020.7
2017-May-22 09:01N 37°36' E 007°48'1320.7
2017-May-22 08:24N 37°38' E 008°04'1020.8
2017-May-22 07:53N 37°40' E 008°17'1420.7
2017-May-22 07:14N 37°42' E 008°35'620.6
2017-May-22 06:57N 37°42' E 008°42'920.1
2017-May-22 06:30N 37°44' E 008°53'1020.2
2017-May-22 05:59N 37°43' E 009°06'1220.0
2017-May-22 05:24N 37°42' E 009°21'11120.6
2017-May-22 00:00N 37°12' E 011°36'8519.1 010 / 181021.510.8 19.016.518.4
2017-May-21 19:34N 36°48' E 013°18'119.8
2017-May-21 19:30N 36°47' E 013°19'1019.8
2017-May-21 19:00N 36°45' E 013°31'1019.9
2017-May-21 18:30N 36°42' E 013°43'1019.6
2017-May-21 18:00N 36°39' E 013°54'1019.3
2017-May-21 17:30N 36°36' E 014°06'919.1
2017-May-21 17:00N 36°33' E 014°17'1019.0
2017-May-21 16:30N 36°30' E 014°28'1019.1
2017-May-21 16:00N 36°27' E 014°40'918.8
2017-May-21 15:30N 36°24' E 014°51'38920.1
2017-May-20 20:08N 34°23' E 022°24'319.5
2017-May-20 20:00N 34°22' E 022°27'7120.2
2017-May-20 16:30N 34°00' E 023°48'51012.6
2017-May-19 00:00N 29°48' E 032°30'52714.6 360 / 201008.610.8 24.022.521.5
2017-May-17 12:00N 22°18' E 037°36'78616.4 320 / 111009.0 2.2 33.030.429.9
2017-May-15 12:00N 12°24' E 046°36'23419.5 1011.710.8 33.030.430.3
2017-May-15 00:00N 13°36' E 050°24'   1011.810.8 25.023.528.0
Track history (hours):
 
Tides and Currents Weather Stations Pressure Air Temp Water Temp Dewpoint Dewpoint Depression Visibility Wind Speed Wind Dir Waves Ship Positions

OOCL Hamburg

Last reported at 2017-May-22 23:00 UTC. Time now 2017-May-22 23:18 UTC.
Position N 36°58' E 002°16'.

Length 323 m; beam 42.8 m; draft 14.5 m.

Type: Cargo ship. MMSI: 477702000.

Date/timePositionNaut miles runAvg speedWind from/ knotsBaromVisibWave heightAir tempDewpointWater temp
2017-May-22 23:00N 36°58' E 002°16'1019.3
2017-May-22 22:30N 36°59' E 002°28'919.1
2017-May-22 22:00N 37°01' E 002°39'1119.1
2017-May-22 21:27N 37°02' E 002°53'819.0
2017-May-22 21:00N 37°03' E 003°03'918.7
2017-May-22 20:30N 37°05' E 003°15'918.6
2017-May-22 20:00N 37°06' E 003°26'918.9
2017-May-22 19:30N 37°07' E 003°38'1019.0
2017-May-22 19:00N 37°09' E 003°50'919.0
2017-May-22 18:31N 37°10' E 004°01'918.9
2017-May-22 18:00N 37°11' E 004°13'918.8
2017-May-22 17:30N 37°13' E 004°25'918.9
2017-May-22 17:00N 37°14' E 004°37'918.9
2017-May-22 16:30N 37°15' E 004°48'918.7
2017-May-22 16:00N 37°17' E 004°60'918.1
2017-May-22 15:31N 37°18' E 005°11'918.4
2017-May-22 15:00N 37°20' E 005°23'1918.8
2017-May-22 14:00N 37°22' E 005°46'1018.9
2017-May-22 13:30N 37°23' E 005°58'918.8
2017-May-22 13:01N 37°24' E 006°10'918.8
2017-May-22 12:31N 37°26' E 006°21'918.8
2017-May-22 12:00N 37°27' E 006°33'918.7
2017-May-22 11:30N 37°29' E 006°45'1019.2
2017-May-22 11:00N 37°30' E 006°57'1020.9
2017-May-22 10:30N 37°32' E 007°10'1020.7
2017-May-22 10:00N 37°33' E 007°23'1020.9
2017-May-22 09:30N 37°35' E 007°36'1020.7
2017-May-22 09:01N 37°36' E 007°48'1320.7
2017-May-22 08:24N 37°38' E 008°04'1020.8
2017-May-22 07:53N 37°40' E 008°17'1420.7
2017-May-22 07:14N 37°42' E 008°35'620.6
2017-May-22 06:57N 37°42' E 008°42'920.1
2017-May-22 06:30N 37°44' E 008°53'1020.2
2017-May-22 05:59N 37°43' E 009°06'1220.0
2017-May-22 05:24N 37°42' E 009°21'11120.6
2017-May-22 00:00N 37°12' E 011°36'8519.1 010 / 181021.510.8 19.016.518.4
2017-May-21 19:34N 36°48' E 013°18'119.8
2017-May-21 19:30N 36°47' E 013°19'1019.8
2017-May-21 19:00N 36°45' E 013°31'1019.9
2017-May-21 18:30N 36°42' E 013°43'1019.6
2017-May-21 18:00N 36°39' E 013°54'1019.3
2017-May-21 17:30N 36°36' E 014°06'919.1
2017-May-21 17:00N 36°33' E 014°17'1019.0
2017-May-21 16:30N 36°30' E 014°28'1019.1
2017-May-21 16:00N 36°27' E 014°40'918.8
2017-May-21 15:30N 36°24' E 014°51'38920.1
2017-May-20 20:08N 34°23' E 022°24'319.5
2017-May-20 20:00N 34°22' E 022°27'7120.2
2017-May-20 16:30N 34°00' E 023°48'51012.6
2017-May-19 00:00N 29°48' E 032°30'52714.6 360 / 201008.610.8 24.022.521.5
2017-May-17 12:00N 22°18' E 037°36'78616.4 320 / 111009.0 2.2 33.030.429.9
2017-May-15 12:00N 12°24' E 046°36'23419.5 1011.710.8 33.030.430.3
2017-May-15 00:00N 13°36' E 050°24'   1011.810.8 25.023.528.0

Dump ship's entire track history